Погода Соменкина неделю

Смоленская область, Россия

24 - 30 мая
  • 24мая
    Сегодня
    +7°
    +22°
    Ясно и безоблачно
    ВремяПогодаТемператураВлажностьДавлениеВетер, м/сВероятность осадков
    00:00Ясно и безоблачно+12°C56 %755 мм3.4 м/с2 %
    03:00Ясно и безоблачно+10°C61 %756 мм3.5 м/с2 %
    06:00Ясно и безоблачно+9°C62 %757 мм3.6 м/с2 %
    09:00Ясно и безоблачно+16°C55 %758 мм3.9 м/с2 %
    12:00Ясно и безоблачно+21°C37 %758 мм4.8 м/с2 %
    15:00Ясно и безоблачно+22°C36 %757 мм4.2 м/с2 %
    18:00Ясно и безоблачно+22°C37 %756 мм3.7 м/с2 %
    21:00Ясно и безоблачно+16°C51 %757 мм2.7 м/с2 %
  • 25мая
    Суббота
    +9°
    +25°
    Ясно и безоблачно
    ВремяПогодаТемператураВлажностьДавлениеВетер, м/сВероятность осадков
    00:00Ясно и безоблачно+11°C56 %757 мм2.9 м/с2 %
    03:00Ясно и безоблачно+8°C65 %757 мм2.6 м/с2 %
    06:00Ясно и безоблачно+9°C71 %757 мм2.4 м/с2 %
    09:00Ясно и безоблачно+16°C59 %757 мм1.9 м/с2 %
    12:00Ясно и безоблачно+22°C46 %756 мм2.0 м/с2 %
    15:00Ясно и безоблачно+24°C39 %755 мм2.3 м/с2 %
    18:00Ясно и безоблачно+24°C41 %754 мм2.0 м/с2 %
    21:00Ясно и безоблачно+17°C67 %754 мм2.5 м/с2 %
  • 26мая
    Воскресенье
    +11°
    +26°
    Небольшая облачность
    ВремяПогодаТемператураВлажностьДавлениеВетер, м/сВероятность осадков
    00:00Ясно и безоблачно+12°C75 %754 мм2.6 м/с2 %
    03:00Ясно и безоблачно+11°C79 %754 мм2.1 м/с2 %
    06:00Ясно и безоблачно+11°C80 %754 мм2.1 м/с2 %
    09:00Ясно и безоблачно+19°C56 %754 мм1.8 м/с2 %
    12:00Практически безоблачно+24°C40 %754 мм1.3 м/с2 %
    15:00Небольшая облачность+24°C34 %754 мм2.5 м/с2 %
    18:00Практически безоблачно+25°C37 %753 мм2.3 м/с2 %
    21:00Ясно и безоблачно+21°C50 %753 мм1.1 м/с2 %
  • 27мая
    Понедельник
    +11°
    +25°
    Ясно и безоблачно
    ВремяПогодаТемператураВлажностьДавлениеВетер, м/сВероятность осадков
    00:00Ясно и безоблачно+15°C68 %753 мм2.3 м/с2 %
    03:00Ясно и безоблачно+13°C80 %753 мм2.1 м/с2 %
    06:00Ясно и безоблачно+13°C86 %754 мм1.9 м/с2 %
    09:00Ясно и безоблачно+19°C71 %754 мм2.0 м/с2 %
    12:00Ясно и безоблачно+24°C53 %754 мм2.2 м/с7 %
    15:00Ясно и безоблачно+24°C51 %754 мм1.4 м/с22 %
    18:00Практически безоблачно+24°C52 %753 мм1.6 м/с28 %
    21:00Ясно и безоблачно+20°C72 %753 мм1.5 м/с8 %
  • 28мая
    Вторник
    +10°
    +26°
    Практически безоблачно
    ВремяПогодаТемператураВлажностьДавлениеВетер, м/сВероятность осадков
    00:00Ясно и безоблачно+15°C86 %753 мм2.2 м/с2 %
    03:00Ясно и безоблачно+13°C90 %753 мм1.8 м/с2 %
    06:00Ясно и безоблачно+12°C89 %753 мм2.3 м/с2 %
    09:00Ясно и безоблачно+20°C70 %753 мм1.7 м/с2 %
    12:00Практически безоблачно+24°C51 %753 мм1.8 м/с4 %
    15:00Практически безоблачно+25°C45 %752 мм1.6 м/с8 %
    18:00Ясно и безоблачно+25°C46 %751 мм1.7 м/с9 %
    21:00Ясно и безоблачно+19°C62 %751 мм1.7 м/с3 %
Мы используем cookies
Соглашаюсь